Acadia Valley, Canada
Current Conditions -  °F | °C
As of 1:00 PM on Friday 19 Dec 2014 (Local Time) from CYKY Reporting Station
Broken Clouds Broken Clouds  
Wind Chill: 13°   Ceiling: 26000
Heat Index: 21°   Visibility: 8mi
Dew Point: 19°   Wind: 7mph
Humidity: 93%   Direction: 120°ESE
Pressure: 29.79"   Gusts: NA
Location:  51.15°N, 110.2°W
Report Text: CYKY 192000Z 12006KT 8SM FEW100 BKN260 M06/M07 A2979 RMK AC1CI4 BR SLP132
Loading
Personal Weather Stations






























Interactive Weather Map New forecast layout! Learn more

10-Day Weather Forecast

Advertisements
Track Severe Weather on mobile